createdAt,value
2023-10-07T00:02:01.685Z,8.10
2023-10-07T00:04:30.560Z,8.00
2023-10-07T00:06:57.902Z,8.00
2023-10-07T00:09:25.373Z,8.00
2023-10-07T00:11:53.067Z,7.90
2023-10-07T00:14:20.585Z,7.90
2023-10-07T00:16:48.110Z,7.90
2023-10-07T00:19:15.599Z,7.80
2023-10-07T00:21:43.271Z,7.70
2023-10-07T00:24:10.771Z,7.80
2023-10-07T00:26:38.399Z,7.80
2023-10-07T00:29:05.889Z,7.70
2023-10-07T00:31:33.346Z,7.60
2023-10-07T00:34:02.096Z,7.60
2023-10-07T00:36:30.521Z,7.60
2023-10-07T00:38:58.216Z,7.50
2023-10-07T00:41:25.575Z,7.50
2023-10-07T00:43:52.912Z,7.50
2023-10-07T00:48:49.282Z,7.60
2023-10-07T00:51:17.446Z,7.50
2023-10-07T00:53:45.723Z,7.50
2023-10-07T00:56:14.875Z,7.50
2023-10-07T00:58:43.714Z,7.50
2023-10-07T01:01:11.382Z,7.40
2023-10-07T01:03:39.003Z,7.50
2023-10-07T01:06:06.739Z,7.40
2023-10-07T01:08:34.233Z,7.40
2023-10-07T01:11:02.875Z,7.40
2023-10-07T01:13:30.689Z,7.50
2023-10-07T01:15:58.716Z,7.40
2023-10-07T01:18:26.169Z,7.40
2023-10-07T01:20:53.580Z,7.30
2023-10-07T01:23:21.700Z,7.30
2023-10-07T01:25:49.222Z,7.40
2023-10-07T01:28:19.168Z,7.30
2023-10-07T01:30:50.623Z,7.20
2023-10-07T01:33:18.175Z,7.20
2023-10-07T01:35:45.510Z,7.10
2023-10-07T01:38:13.025Z,7.20
2023-10-07T01:40:40.578Z,7.20
2023-10-07T01:43:08.021Z,7.20
2023-10-07T01:45:38.264Z,7.20
2023-10-07T01:48:06.501Z,7.20
2023-10-07T01:50:45.762Z,7.20
2023-10-07T01:53:14.052Z,7.30
2023-10-07T01:55:43.244Z,7.40
2023-10-07T01:58:14.538Z,7.40
2023-10-07T02:00:46.901Z,7.50
2023-10-07T02:03:17.207Z,7.50
2023-10-07T02:05:45.726Z,7.40
2023-10-07T02:08:13.626Z,7.30
2023-10-07T02:10:42.442Z,7.30
2023-10-07T02:13:14.109Z,7.30
2023-10-07T02:15:44.592Z,7.20
2023-10-07T02:18:12.879Z,7.20
2023-10-07T02:20:40.334Z,7.20
2023-10-07T02:23:08.033Z,7.10
2023-10-07T02:25:35.495Z,7.10
2023-10-07T02:28:02.845Z,7.10
2023-10-07T02:30:30.277Z,7.10
2023-10-07T02:32:57.653Z,7.00
2023-10-07T02:35:25.195Z,6.80
2023-10-07T02:40:20.860Z,6.80
2023-10-07T02:42:48.383Z,6.80
2023-10-07T02:45:15.855Z,6.80
2023-10-07T02:47:43.288Z,6.70
2023-10-07T02:50:11.073Z,6.70
2023-10-07T02:52:39.062Z,6.70
2023-10-07T02:55:08.683Z,6.70
2023-10-07T08:11:26.535Z,10.40
2023-10-07T08:13:53.971Z,10.40
2023-10-07T08:16:21.654Z,10.40
2023-10-07T08:18:50.111Z,10.50
2023-10-07T08:21:17.849Z,10.60
2023-10-07T08:23:45.665Z,10.60
2023-10-07T08:26:13.118Z,10.70
2023-10-07T08:28:46.953Z,10.70
2023-10-07T08:31:16.079Z,10.80
2023-10-07T08:33:43.817Z,10.90
2023-10-07T08:36:11.515Z,11.00
2023-10-07T08:38:39.338Z,11.00
2023-10-07T08:41:07.013Z,11.20
2023-10-07T08:43:37.533Z,11.20
2023-10-07T08:46:06.332Z,11.30
2023-10-07T08:48:34.730Z,11.40
2023-10-07T08:51:03.416Z,11.50
2023-10-07T08:53:31.520Z,11.60
2023-10-07T08:55:59.076Z,11.70
2023-10-07T08:58:30.632Z,11.80
2023-10-07T09:00:58.664Z,11.90
2023-10-07T09:03:26.947Z,12.10
2023-10-07T09:05:54.514Z,12.10
2023-10-07T09:08:21.951Z,12.30
2023-10-07T09:10:51.918Z,12.50
2023-10-07T09:13:19.315Z,12.60
2023-10-07T09:15:52.227Z,12.70
2023-10-07T09:18:24.660Z,12.80
2023-10-07T09:20:52.712Z,12.90
2023-10-07T09:25:48.828Z,13.10
2023-10-07T09:28:17.656Z,13.10
2023-10-07T09:30:45.228Z,13.30
2023-10-07T09:33:16.184Z,13.30
2023-10-07T09:35:52.045Z,13.50
2023-10-07T09:38:19.425Z,13.60
2023-10-07T09:43:15.231Z,13.80
2023-10-07T09:45:44.617Z,13.90
2023-10-07T09:48:12.133Z,14.00
2023-10-07T09:50:45.972Z,14.00
2023-10-07T09:53:50.888Z,14.00
2023-10-07T09:57:00.894Z,14.20
2023-10-07T10:00:03.854Z,14.30
2023-10-07T10:02:49.791Z,14.40
2023-10-07T10:05:33.928Z,14.50
2023-10-07T10:08:10.124Z,14.60
2023-10-07T10:10:41.124Z,14.70
2023-10-07T10:13:08.616Z,14.80
2023-10-07T10:15:38.461Z,15.00
2023-10-07T10:18:08.486Z,15.10
2023-10-07T10:20:37.759Z,15.10
2023-10-07T10:23:05.212Z,15.10
2023-10-07T10:25:33.041Z,15.30
2023-10-07T10:28:01.229Z,15.40
2023-10-07T10:30:28.846Z,15.50
2023-10-07T10:33:02.047Z,15.60
2023-10-07T10:35:31.255Z,15.70
2023-10-07T10:37:59.159Z,15.80
2023-10-07T10:40:27.059Z,15.90
2023-10-07T10:42:54.816Z,16.00
2023-10-07T10:45:25.145Z,16.30
2023-10-07T10:50:24.980Z,16.70
2023-10-07T11:00:21.881Z,20.90
2023-10-07T11:02:52.666Z,21.50
2023-10-07T11:07:50.506Z,23.40
2023-10-07T11:12:50.021Z,25.10
2023-10-07T11:15:18.016Z,25.60
2023-10-07T11:20:36.047Z,26.80
2023-10-07T11:23:04.101Z,27.20
2023-10-07T11:25:31.509Z,27.60
2023-10-07T11:27:58.904Z,28.20
2023-10-07T11:30:26.695Z,28.00
2023-10-07T11:32:54.459Z,28.30
2023-10-07T11:35:24.366Z,28.60
2023-10-07T11:37:53.633Z,28.40
2023-10-07T11:40:21.188Z,28.50
2023-10-07T11:42:48.739Z,28.40
2023-10-07T11:45:16.314Z,28.50
2023-10-07T11:47:44.858Z,28.70
2023-10-07T11:50:12.252Z,28.50
2023-10-07T11:52:39.733Z,28.80
2023-10-07T11:55:07.366Z,28.80
2023-10-07T11:57:35.535Z,28.50
2023-10-07T12:00:23.285Z,28.10
2023-10-07T12:02:52.068Z,28.20
2023-10-07T12:05:22.291Z,28.00
2023-10-07T12:07:50.912Z,28.10
2023-10-07T12:10:19.079Z,28.00
2023-10-07T12:12:47.643Z,27.80
2023-10-07T12:15:15.316Z,27.50
2023-10-07T12:17:46.534Z,27.40
2023-10-07T12:20:14.294Z,27.50
2023-10-07T12:22:44.313Z,27.30
2023-10-07T12:25:12.347Z,27.40
2023-10-07T12:27:40.962Z,27.00
2023-10-07T12:30:09.671Z,27.00
2023-10-07T12:32:37.119Z,27.20
2023-10-07T12:35:05.545Z,27.10
2023-10-07T12:37:35.474Z,27.20
2023-10-07T12:40:04.043Z,27.20
2023-10-07T12:45:00.900Z,27.10
2023-10-07T12:47:30.866Z,27.10
2023-10-07T12:49:58.692Z,27.00
2023-10-07T12:52:26.179Z,27.00
2023-10-07T12:54:54.300Z,26.80
2023-10-07T12:57:21.679Z,26.80
2023-10-07T13:02:16.803Z,26.80
2023-10-07T13:04:45.280Z,26.80
2023-10-07T13:07:13.229Z,26.60
2023-10-07T13:09:42.625Z,26.40
2023-10-07T13:12:11.518Z,26.50
2023-10-07T13:14:39.518Z,26.60
2023-10-07T13:17:06.923Z,26.40
2023-10-07T13:22:03.557Z,26.40
2023-10-07T13:24:31.188Z,26.50
2023-10-07T13:26:58.508Z,26.60
2023-10-07T13:29:28.701Z,26.60
2023-10-07T13:31:56.093Z,26.50
2023-10-07T13:34:23.665Z,26.60
2023-10-07T13:36:51.032Z,26.50
2023-10-07T13:39:18.366Z,26.60
2023-10-07T13:41:48.527Z,26.50
2023-10-07T13:44:17.981Z,26.60
2023-10-07T13:46:46.983Z,26.80
2023-10-07T13:49:16.666Z,26.70
2023-10-07T13:51:46.439Z,26.40
2023-10-07T15:05:07.851Z,22.50
2023-10-07T15:07:35.592Z,22.00
2023-10-07T15:10:03.421Z,21.80
2023-10-07T15:12:30.961Z,21.70
2023-10-07T15:14:58.301Z,21.70
2023-10-07T15:17:26.049Z,21.50
2023-10-07T15:19:54.254Z,21.30
2023-10-07T15:22:22.131Z,21.10
2023-10-07T15:24:49.797Z,20.90
2023-10-07T15:39:37.981Z,19.80
2023-10-07T15:42:05.441Z,19.80
2023-10-07T15:44:33.027Z,19.60
2023-10-07T15:47:00.969Z,19.40
2023-10-07T15:49:35.900Z,19.30
2023-10-07T15:52:04.352Z,19.10
2023-10-07T15:54:31.715Z,19.10
2023-10-07T15:56:59.256Z,18.90
2023-10-07T15:59:26.706Z,18.90
2023-10-07T16:01:54.207Z,18.80
2023-10-07T16:04:21.867Z,18.70
2023-10-07T16:06:49.348Z,18.60
2023-10-07T16:09:17.116Z,18.40
2023-10-07T16:11:47.746Z,18.30
2023-10-07T16:14:16.226Z,18.30
2023-10-07T16:16:44.088Z,18.30
2023-10-07T16:19:12.038Z,18.20
2023-10-07T16:21:42.119Z,18.00
2023-10-07T16:24:10.093Z,18.00
2023-10-07T16:26:39.024Z,17.90
2023-10-07T16:29:08.884Z,17.70
2023-10-07T16:31:39.710Z,17.70
2023-10-07T16:34:07.300Z,17.50
2023-10-07T16:36:34.854Z,17.50
2023-10-07T16:39:04.298Z,17.50
2023-10-07T16:41:31.871Z,17.40
2023-10-07T16:43:59.713Z,17.40
2023-10-07T16:46:31.087Z,17.30
2023-10-07T16:48:59.197Z,17.30
2023-10-07T16:51:26.890Z,17.20
2023-10-07T16:53:54.421Z,17.10
2023-10-07T16:56:24.524Z,17.10
2023-10-07T16:58:52.533Z,17.00
2023-10-07T17:03:49.517Z,16.70
2023-10-07T17:06:20.157Z,16.60
2023-10-07T17:08:53.460Z,16.60
2023-10-07T17:11:21.549Z,16.50
2023-10-07T17:13:50.058Z,16.30
2023-10-07T17:16:20.920Z,16.30
2023-10-07T17:18:48.285Z,16.20
2023-10-07T17:21:15.790Z,16.10
2023-10-07T17:23:43.293Z,16.10
2023-10-07T17:26:11.086Z,16.00
2023-10-07T17:28:38.581Z,16.00
2023-10-07T17:31:12.290Z,15.90
2023-10-07T17:33:39.951Z,15.80
2023-10-07T17:36:08.735Z,15.70
2023-10-07T17:38:37.633Z,15.70
2023-10-07T17:41:05.177Z,15.60
2023-10-07T17:46:00.874Z,15.40
2023-10-07T17:48:28.516Z,15.40
2023-10-07T17:50:55.984Z,15.30
2023-10-07T17:53:23.527Z,15.30
2023-10-07T17:55:51.916Z,15.20
2023-10-07T17:58:25.257Z,15.10
2023-10-07T18:03:20.914Z,14.80
2023-10-07T18:05:51.138Z,14.80
2023-10-07T18:08:21.252Z,14.70
2023-10-07T18:10:52.096Z,14.60
2023-10-07T18:13:19.650Z,14.60
2023-10-07T18:15:47.113Z,14.50
2023-10-07T18:18:15.224Z,14.50
2023-10-07T18:20:42.602Z,14.50
2023-10-07T18:23:10.211Z,14.40
2023-10-07T18:25:37.678Z,14.40
2023-10-07T18:28:05.325Z,14.50
2023-10-07T18:30:32.791Z,14.40
2023-10-07T18:33:00.705Z,14.30
2023-10-07T18:35:28.138Z,14.20
2023-10-07T18:37:55.567Z,14.20
2023-10-07T18:40:22.949Z,14.20
2023-10-07T18:42:50.408Z,14.10
2023-10-07T18:45:17.971Z,14.00
2023-10-07T18:47:45.393Z,14.10
2023-10-07T18:50:13.130Z,14.00
2023-10-07T18:52:40.901Z,14.10
2023-10-07T18:55:09.272Z,14.00
2023-10-07T18:57:40.569Z,14.00
2023-10-07T19:00:09.688Z,14.10
2023-10-07T19:02:37.217Z,14.00
2023-10-07T19:05:05.331Z,14.00
2023-10-07T19:07:32.729Z,13.90
2023-10-07T19:10:00.158Z,13.90
2023-10-07T19:12:27.758Z,14.00
2023-10-07T19:14:55.146Z,14.00
2023-10-07T19:17:22.591Z,14.00
2023-10-07T19:19:50.120Z,14.00
2023-10-07T19:22:17.590Z,13.80
2023-10-07T19:24:45.009Z,13.90
2023-10-07T19:27:12.409Z,13.80
2023-10-07T19:29:39.973Z,13.80
2023-10-07T19:32:07.452Z,13.80
2023-10-07T19:34:35.050Z,13.80
2023-10-07T19:37:02.328Z,13.70
2023-10-07T19:39:42.424Z,13.60
2023-10-07T19:42:12.335Z,13.70
2023-10-07T19:44:40.010Z,13.70
2023-10-07T19:47:07.687Z,13.60
2023-10-07T19:49:37.828Z,13.60
2023-10-07T19:52:06.025Z,13.50
2023-10-07T19:54:33.756Z,13.50
2023-10-07T19:57:01.141Z,13.50
2023-10-07T19:59:28.519Z,13.60
2023-10-07T20:01:55.967Z,13.50
2023-10-07T20:04:23.573Z,13.50
2023-10-07T20:06:50.941Z,13.50
2023-10-07T20:09:18.261Z,13.50
2023-10-07T20:11:48.277Z,13.50
2023-10-07T20:14:16.103Z,13.50
2023-10-07T20:16:43.667Z,13.30
2023-10-07T20:19:11.478Z,13.20
2023-10-07T20:21:39.082Z,13.20
2023-10-07T20:24:07.152Z,13.20
2023-10-07T20:26:34.742Z,13.20
2023-10-07T20:29:02.228Z,13.20
2023-10-07T20:31:29.722Z,13.20
2023-10-07T20:36:25.290Z,13.00
2023-10-07T20:38:53.512Z,13.10
2023-10-07T20:41:20.983Z,13.10
2023-10-07T20:43:48.337Z,13.00
2023-10-07T20:46:15.933Z,13.00
2023-10-07T20:48:43.406Z,12.80
2023-10-07T20:51:13.401Z,12.80
2023-10-07T20:53:43.666Z,12.80
2023-10-07T20:56:13.369Z,12.80
2023-10-07T20:58:42.182Z,12.80
2023-10-07T21:01:21.701Z,12.80
2023-10-07T21:03:54.381Z,12.70
2023-10-07T21:06:23.025Z,12.80
2023-10-07T21:08:53.296Z,12.80
2023-10-07T21:11:21.265Z,12.70
2023-10-07T21:13:48.915Z,12.70
2023-10-07T21:16:16.692Z,12.60
2023-10-07T21:18:44.146Z,12.70
2023-10-07T21:21:13.428Z,12.70
2023-10-07T21:23:44.969Z,12.70
2023-10-07T21:26:20.863Z,12.70
2023-10-07T21:28:54.541Z,12.80
2023-10-07T21:31:22.057Z,12.80
2023-10-07T21:33:49.631Z,12.70
2023-10-07T21:36:17.329Z,12.60
2023-10-07T21:38:45.199Z,12.50
2023-10-07T21:43:40.753Z,12.40
2023-10-07T21:46:08.389Z,12.40
2023-10-07T21:48:35.689Z,12.40
2023-10-07T21:51:11.079Z,12.40
2023-10-07T21:53:38.830Z,12.40
2023-10-07T21:56:12.482Z,12.40
2023-10-07T21:58:40.015Z,12.20
2023-10-07T22:01:07.585Z,12.30
2023-10-07T22:03:41.281Z,12.30
2023-10-07T22:06:08.713Z,12.30
2023-10-07T22:08:36.240Z,11.70
2023-10-07T22:11:03.734Z,12.20
2023-10-07T22:13:31.255Z,12.20
2023-10-07T22:15:58.875Z,12.20
2023-10-07T22:18:27.673Z,12.20
2023-10-07T22:20:55.436Z,12.20
2023-10-07T22:23:24.255Z,12.10
2023-10-07T22:25:52.826Z,12.00
2023-10-07T22:28:21.643Z,12.10
2023-10-07T22:30:50.934Z,12.10
2023-10-07T22:33:22.562Z,12.20
2023-10-07T22:35:52.020Z,12.20
2023-10-07T22:38:20.089Z,12.10
2023-10-07T22:40:50.323Z,12.10
2023-10-07T22:43:18.876Z,12.10
2023-10-07T22:45:48.254Z,12.20
2023-10-07T22:48:24.825Z,12.20
2023-10-07T22:50:55.607Z,12.20
2023-10-07T22:53:24.192Z,12.20
2023-10-07T22:55:51.589Z,12.20
2023-10-07T22:58:20.113Z,12.20
2023-10-07T23:00:51.958Z,12.30
2023-10-07T23:03:20.232Z,12.30
2023-10-07T23:05:49.179Z,12.30
2023-10-07T23:08:17.679Z,12.20
2023-10-07T23:10:45.118Z,12.20
2023-10-07T23:13:12.517Z,12.20
2023-10-07T23:15:40.603Z,12.30
2023-10-07T23:18:08.238Z,12.30
2023-10-07T23:20:35.976Z,12.20
2023-10-07T23:23:03.396Z,12.20
2023-10-07T23:25:32.145Z,12.30
2023-10-07T23:27:59.483Z,12.20
2023-10-07T23:30:27.076Z,12.30
2023-10-07T23:32:56.815Z,12.30
2023-10-07T23:35:24.592Z,12.30
2023-10-07T23:37:52.967Z,12.30
2023-10-07T23:40:21.476Z,12.30
2023-10-07T23:42:48.796Z,12.20
2023-10-07T23:45:16.631Z,12.10
2023-10-07T23:47:44.094Z,12.10
2023-10-07T23:50:11.844Z,12.20
2023-10-07T23:52:39.229Z,12.20
2023-10-07T23:55:07.170Z,12.20
2023-10-07T23:57:34.541Z,12.10
